createdAt,value
2023-03-06T00:01:55.268Z,66.83
2023-03-06T00:04:55.265Z,67.44
2023-03-06T00:07:56.293Z,68.12
2023-03-06T00:10:56.249Z,68.64
2023-03-06T00:13:56.277Z,69.19
2023-03-06T00:16:56.241Z,69.47
2023-03-06T00:19:56.287Z,69.60
2023-03-06T00:22:56.273Z,69.04
2023-03-06T00:25:51.363Z,69.13
2023-03-06T00:28:44.269Z,68.89
2023-03-06T00:31:44.286Z,69.44
2023-03-06T00:34:44.242Z,68.90
2023-03-06T00:37:44.278Z,68.82
2023-03-06T00:40:44.243Z,68.86
2023-03-06T00:43:44.271Z,68.96
2023-03-06T00:46:44.247Z,69.34
2023-03-06T00:49:44.237Z,69.00
2023-03-06T00:52:45.296Z,68.65
2023-03-06T00:55:45.272Z,69.06
2023-03-06T00:58:45.247Z,69.53
2023-03-06T01:01:45.294Z,69.50
2023-03-06T01:04:45.240Z,69.86
2023-03-06T01:07:45.233Z,70.26
2023-03-06T01:10:45.269Z,70.59
2023-03-06T01:13:45.247Z,70.96
2023-03-06T01:16:46.255Z,70.70
2023-03-06T01:19:46.236Z,70.85
2023-03-06T01:22:46.240Z,70.64
2023-03-06T01:25:47.282Z,71.06
2023-03-06T01:28:47.259Z,71.38
2023-03-06T01:31:47.295Z,71.61
2023-03-06T01:34:47.223Z,71.59
2023-03-06T01:37:49.231Z,71.69
2023-03-06T01:40:50.264Z,71.35
2023-03-06T01:43:54.249Z,71.34
2023-03-06T01:46:55.249Z,71.77
2023-03-06T01:49:55.243Z,72.02
2023-03-06T01:53:03.244Z,71.94
2023-03-06T01:56:03.281Z,72.19
2023-03-06T01:59:03.238Z,72.25
2023-03-06T02:02:03.283Z,72.85
2023-03-06T02:05:03.231Z,72.81
2023-03-06T02:08:04.249Z,72.96
2023-03-06T02:11:19.303Z,73.43
2023-03-06T02:14:19.237Z,73.69
2023-03-06T02:17:19.286Z,74.32
2023-03-06T02:20:37.220Z,75.24
2023-03-06T02:23:54.274Z,75.07
2023-03-06T02:26:55.271Z,76.54
2023-03-06T02:29:55.252Z,77.16
2023-03-06T02:32:55.270Z,77.58
2023-03-06T02:36:09.274Z,78.97
2023-03-06T02:39:09.273Z,79.16
2023-03-06T02:42:09.296Z,79.96
2023-03-06T02:45:10.242Z,80.14
2023-03-06T02:48:10.261Z,80.31
2023-03-06T02:51:11.241Z,81.00
2023-03-06T02:54:11.210Z,80.90
2023-03-06T02:57:11.266Z,81.52
2023-03-06T03:00:11.261Z,82.34
2023-03-06T03:03:11.213Z,81.98
2023-03-06T03:06:11.221Z,82.84
2023-03-06T03:09:11.240Z,83.59
2023-03-06T03:12:11.262Z,84.08
2023-03-06T03:15:11.289Z,83.66
2023-03-06T03:18:11.254Z,83.90
2023-03-06T03:21:11.242Z,84.62
2023-03-06T03:24:13.221Z,84.49
2023-03-06T03:27:13.220Z,86.63
2023-03-06T03:30:14.231Z,85.70
2023-03-06T03:33:14.259Z,87.44
2023-03-06T03:36:15.219Z,87.79
2023-03-06T03:39:15.223Z,87.76
2023-03-06T03:42:15.273Z,88.25
2023-03-06T03:45:15.264Z,88.32
2023-03-06T03:48:15.269Z,87.56
2023-03-06T03:51:23.247Z,88.11
2023-03-06T03:54:23.243Z,87.15
2023-03-06T03:57:23.213Z,86.82
2023-03-06T04:00:24.264Z,86.34
2023-03-06T04:03:25.266Z,85.36
2023-03-06T04:06:25.237Z,85.82
2023-03-06T04:09:25.248Z,85.22
2023-03-06T04:12:25.218Z,85.53
2023-03-06T04:15:25.243Z,85.43
2023-03-06T04:18:26.220Z,85.38
2023-03-06T04:21:26.227Z,85.77
2023-03-06T04:24:26.222Z,85.60
2023-03-06T04:27:27.214Z,85.16
2023-03-06T04:30:27.230Z,85.26
2023-03-06T04:33:28.239Z,85.08
2023-03-06T04:36:39.221Z,85.86
2023-03-06T04:39:39.239Z,85.25
2023-03-06T04:42:39.224Z,85.55
2023-03-06T04:45:41.276Z,86.17
2023-03-06T04:48:43.240Z,86.33
2023-03-06T04:51:43.228Z,86.16
2023-03-06T04:54:43.253Z,85.49
2023-03-06T04:57:43.216Z,85.71
2023-03-06T05:00:43.382Z,85.59
2023-03-06T05:03:43.249Z,85.96
2023-03-06T05:06:43.270Z,86.31
2023-03-06T05:09:43.217Z,85.16
2023-03-06T05:12:43.220Z,85.46
2023-03-06T05:15:43.240Z,85.23
2023-03-06T05:18:43.256Z,85.54
2023-03-06T05:21:43.239Z,85.49
2023-03-06T05:24:43.251Z,86.14
2023-03-06T05:27:43.251Z,85.26
2023-03-06T05:30:43.199Z,85.60
2023-03-06T05:33:45.246Z,85.07
2023-03-06T05:36:45.238Z,84.51
2023-03-06T05:39:45.223Z,84.37
2023-03-06T05:42:45.240Z,83.94
2023-03-06T05:45:45.338Z,83.38
2023-03-06T05:48:46.764Z,82.95
2023-03-06T05:51:46.266Z,82.33
2023-03-06T05:54:47.234Z,82.12
2023-03-06T05:57:47.273Z,81.82
2023-03-06T06:00:47.242Z,81.65
2023-03-06T06:03:47.326Z,81.21
2023-03-06T06:06:47.210Z,81.19
2023-03-06T06:09:47.252Z,81.22
2023-03-06T06:12:47.256Z,80.76
2023-03-06T06:15:47.310Z,80.66
2023-03-06T06:18:47.245Z,80.45
2023-03-06T06:21:48.205Z,80.17
2023-03-06T06:24:48.277Z,80.18
2023-03-06T06:27:48.245Z,80.51
2023-03-06T06:30:48.286Z,80.48
2023-03-06T06:33:49.237Z,80.64
2023-03-06T06:36:51.006Z,80.35
2023-03-06T06:39:52.298Z,79.93
2023-03-06T06:42:53.272Z,79.90
2023-03-06T06:46:02.348Z,79.57
2023-03-06T06:49:11.271Z,79.79
2023-03-06T06:52:11.264Z,79.81
2023-03-06T06:55:13.283Z,79.39
2023-03-06T06:58:13.297Z,79.43
2023-03-06T07:01:24.233Z,78.91
2023-03-06T07:04:27.263Z,79.04
2023-03-06T07:07:27.241Z,79.07
2023-03-06T07:10:38.233Z,78.50
2023-03-06T07:13:38.220Z,78.24
2023-03-06T07:16:38.228Z,77.50
2023-03-06T07:19:38.736Z,77.29
2023-03-06T07:22:50.315Z,76.82
2023-03-06T07:25:51.232Z,76.29
2023-03-06T07:28:52.870Z,76.04
2023-03-06T07:31:54.280Z,76.21
2023-03-06T07:35:06.178Z,75.38
2023-03-06T07:38:14.260Z,75.35
2023-03-06T07:41:21.966Z,74.71
2023-03-06T07:44:22.240Z,74.30
2023-03-06T07:47:22.222Z,73.56
2023-03-06T07:50:23.254Z,73.63
2023-03-06T07:53:23.258Z,72.88
2023-03-06T07:56:25.798Z,71.57
2023-03-06T07:59:25.206Z,70.61
2023-03-06T08:02:26.222Z,69.99
2023-03-06T08:05:28.222Z,68.94
2023-03-06T08:08:28.222Z,68.34
2023-03-06T08:11:29.215Z,68.21
2023-03-06T08:14:29.279Z,68.73
2023-03-06T08:17:29.253Z,68.22
2023-03-06T08:20:29.238Z,67.53
2023-03-06T08:23:29.277Z,67.17
2023-03-06T08:26:40.183Z,67.20
2023-03-06T08:29:41.240Z,67.29
2023-03-06T08:32:41.287Z,67.30
2023-03-06T08:35:41.274Z,66.61
2023-03-06T08:38:41.194Z,65.50
2023-03-06T08:41:41.217Z,63.47
2023-03-06T08:44:41.190Z,62.74
2023-03-06T08:47:41.230Z,61.91
2023-03-06T08:50:41.207Z,60.64
2023-03-06T08:53:43.498Z,60.84
2023-03-06T08:56:46.221Z,60.67
2023-03-06T08:59:46.244Z,60.23
2023-03-06T09:02:46.355Z,58.60
2023-03-06T09:05:46.274Z,58.42
2023-03-06T09:08:49.215Z,58.37
2023-03-06T09:11:49.248Z,57.90
2023-03-06T09:14:49.222Z,57.61
2023-03-06T09:17:49.370Z,58.03
2023-03-06T09:20:49.242Z,57.68
2023-03-06T09:23:50.220Z,57.18
2023-03-06T09:26:51.695Z,56.62
2023-03-06T09:29:51.246Z,55.58
2023-03-06T09:32:51.254Z,56.05
2023-03-06T09:35:57.297Z,55.60
2023-03-06T09:38:57.248Z,55.83
2023-03-06T09:41:57.216Z,55.72
2023-03-06T09:45:08.281Z,56.08
2023-03-06T09:48:11.306Z,56.02
2023-03-06T09:51:16.251Z,55.68
2023-03-06T09:54:20.228Z,55.83
2023-03-06T09:56:59.364Z,55.79
2023-03-06T09:59:50.266Z,55.29
2023-03-06T10:02:52.380Z,55.01
2023-03-06T10:05:51.241Z,55.36
2023-03-06T10:09:17.194Z,54.74
2023-03-06T10:12:20.240Z,55.34
2023-03-06T10:15:33.247Z,55.61
2023-03-06T10:18:33.265Z,55.29
2023-03-06T10:21:36.230Z,55.72
2023-03-06T10:24:45.280Z,56.38
2023-03-06T10:28:04.251Z,56.78
2023-03-06T10:31:32.539Z,56.95
2023-03-06T10:34:36.204Z,58.14
2023-03-06T10:37:36.271Z,59.17
2023-03-06T10:40:39.541Z,58.85
2023-03-06T10:43:39.257Z,60.52
2023-03-06T10:46:44.304Z,60.50
2023-03-06T10:49:49.242Z,61.05
2023-03-06T10:52:49.209Z,59.96
2023-03-06T10:55:51.436Z,60.14
2023-03-06T10:58:53.263Z,60.29
2023-03-06T11:01:55.373Z,60.11
2023-03-06T11:05:00.294Z,59.82
2023-03-06T11:08:16.351Z,59.52
2023-03-06T11:11:13.352Z,59.40
2023-03-06T11:14:13.202Z,59.12
2023-03-06T11:17:13.217Z,60.52
2023-03-06T11:20:30.319Z,60.59
2023-03-06T11:23:57.321Z,60.75
2023-03-06T11:27:00.193Z,60.25
2023-03-06T11:30:02.288Z,60.39
2023-03-06T11:33:10.216Z,61.49
2023-03-06T11:36:13.222Z,61.76
2023-03-06T11:39:15.221Z,62.86
2023-03-06T11:42:40.210Z,63.31
2023-03-06T11:45:56.242Z,63.12
2023-03-06T11:49:01.314Z,63.27
2023-03-06T11:52:05.237Z,63.79
2023-03-06T11:55:08.202Z,63.98
2023-03-06T11:58:27.235Z,63.63
2023-03-06T12:02:12.326Z,64.22
2023-03-06T12:05:54.211Z,64.12
2023-03-06T12:09:32.261Z,64.08
2023-03-06T12:12:51.217Z,63.43
2023-03-06T12:16:01.252Z,63.24
2023-03-06T12:19:05.205Z,63.38
2023-03-06T12:22:34.213Z,63.51
2023-03-06T12:25:53.345Z,64.30
2023-03-06T12:29:25.253Z,65.31
2023-03-06T12:32:41.312Z,65.68
2023-03-06T12:36:03.243Z,65.24
2023-03-06T12:39:12.236Z,65.31
2023-03-06T12:42:40.251Z,65.55
2023-03-06T12:45:51.232Z,63.99
2023-03-06T12:48:53.195Z,63.48
2023-03-06T12:51:53.212Z,63.35
2023-03-06T12:54:55.201Z,63.65
2023-03-06T12:57:48.195Z,63.88
2023-03-06T13:00:40.284Z,64.33
2023-03-06T13:03:36.186Z,64.01
2023-03-06T13:06:19.299Z,63.09
2023-03-06T13:09:29.241Z,62.74
2023-03-06T13:12:36.293Z,62.40
2023-03-06T13:15:42.209Z,62.19
2023-03-06T13:18:30.306Z,61.45
2023-03-06T13:21:48.237Z,61.37
2023-03-06T13:24:52.611Z,61.30
2023-03-06T13:28:06.249Z,61.19
2023-03-06T13:31:10.633Z,61.13
2023-03-06T13:34:16.239Z,61.39
2023-03-06T13:37:31.231Z,61.77
2023-03-06T13:40:48.252Z,61.54
2023-03-06T13:43:55.246Z,61.38
2023-03-06T13:46:55.323Z,61.37
2023-03-06T13:49:59.222Z,60.51
2023-03-06T13:53:17.216Z,60.78
2023-03-06T13:56:39.201Z,60.11
2023-03-06T14:00:09.645Z,60.02
2023-03-06T14:03:24.504Z,60.32
2023-03-06T14:06:50.251Z,60.15
2023-03-06T14:09:58.245Z,60.19
2023-03-06T14:13:04.264Z,59.94
2023-03-06T14:16:08.202Z,60.24
2023-03-06T14:19:10.459Z,60.25
2023-03-06T14:22:04.194Z,59.99
2023-03-06T14:25:04.242Z,59.82
2023-03-06T14:28:13.738Z,62.20
2023-03-06T14:31:16.296Z,63.99
2023-03-06T14:34:21.251Z,64.86
2023-03-06T14:37:33.223Z,66.29
2023-03-06T14:40:39.231Z,66.27
2023-03-06T14:43:41.253Z,67.02
2023-03-06T14:46:41.261Z,67.53
2023-03-06T14:49:41.227Z,66.94
2023-03-06T14:52:41.203Z,68.24
2023-03-06T14:55:42.221Z,68.41
2023-03-06T14:59:15.237Z,69.12
2023-03-06T15:02:18.244Z,70.99
2023-03-06T15:05:21.215Z,72.99
2023-03-06T15:08:22.197Z,76.40
2023-03-06T15:11:22.209Z,76.16
2023-03-06T15:14:31.222Z,75.92
2023-03-06T15:17:31.196Z,77.43
2023-03-06T15:20:49.221Z,78.64
2023-03-06T15:23:54.194Z,77.54
2023-03-06T15:26:54.205Z,80.06
2023-03-06T15:29:54.212Z,80.72
2023-03-06T15:32:54.186Z,81.50
2023-03-06T15:35:54.195Z,80.77
2023-03-06T15:38:59.241Z,80.85
2023-03-06T15:41:59.206Z,80.96
2023-03-06T15:45:09.235Z,82.46
2023-03-06T15:48:09.179Z,83.57
2023-03-06T15:51:09.240Z,84.50
2023-03-06T15:54:12.221Z,85.83
2023-03-06T15:57:12.189Z,85.67
2023-03-06T16:00:27.039Z,85.72
2023-03-06T16:03:27.252Z,85.96
2023-03-06T16:06:32.187Z,87.57
2023-03-06T16:09:32.234Z,88.43
2023-03-06T16:12:34.197Z,85.96
2023-03-06T16:15:39.210Z,86.27
2023-03-06T16:18:39.195Z,86.98
2023-03-06T16:21:39.176Z,88.25
2023-03-06T16:24:39.257Z,88.86
2023-03-06T16:27:39.194Z,88.85
2023-03-06T16:30:45.284Z,88.67
2023-03-06T16:33:45.236Z,89.43
2023-03-06T16:36:45.191Z,90.22
2023-03-06T16:39:45.181Z,89.59
2023-03-06T16:42:45.233Z,89.50
2023-03-06T16:45:45.286Z,90.50
2023-03-06T16:48:45.214Z,91.33
2023-03-06T16:51:47.192Z,91.65
2023-03-06T16:54:47.184Z,91.69
2023-03-06T16:57:47.182Z,92.31
2023-03-06T17:00:47.171Z,92.24
2023-03-06T17:03:48.172Z,92.43
2023-03-06T17:06:48.229Z,93.69
2023-03-06T17:09:41.246Z,93.85
2023-03-06T17:12:27.178Z,93.18
2023-03-06T17:15:27.234Z,94.33
2023-03-06T17:18:27.202Z,92.18
2023-03-06T17:21:28.234Z,91.74
2023-03-06T17:24:28.217Z,92.18
2023-03-06T17:27:28.193Z,91.62
2023-03-06T17:30:28.214Z,92.21
2023-03-06T17:33:28.172Z,91.47
2023-03-06T17:36:29.194Z,91.56
2023-03-06T17:39:29.168Z,91.04
2023-03-06T17:42:29.186Z,91.19
2023-03-06T17:45:29.175Z,91.21
2023-03-06T17:48:29.186Z,92.53
2023-03-06T17:51:29.167Z,92.80
2023-03-06T17:54:29.234Z,92.97
2023-03-06T17:57:29.222Z,93.03
2023-03-06T18:00:29.194Z,92.84
2023-03-06T18:03:29.206Z,92.84
2023-03-06T18:06:30.298Z,93.10
2023-03-06T18:09:30.185Z,91.76
2023-03-06T18:12:30.225Z,91.57
2023-03-06T18:15:30.171Z,91.00
2023-03-06T18:18:30.180Z,91.62
2023-03-06T18:21:30.230Z,92.81
2023-03-06T18:24:30.176Z,92.66
2023-03-06T18:27:30.171Z,92.03
2023-03-06T18:30:30.172Z,91.93
2023-03-06T18:33:30.198Z,90.74
2023-03-06T18:36:30.252Z,90.27
2023-03-06T18:39:30.214Z,89.68
2023-03-06T18:42:31.212Z,88.17
2023-03-06T18:45:31.237Z,87.03
2023-03-06T18:48:31.166Z,86.77
2023-03-06T18:51:31.169Z,86.45
2023-03-06T18:54:32.193Z,86.47
2023-03-06T18:57:32.209Z,87.47
2023-03-06T19:00:32.192Z,87.67
2023-03-06T19:03:32.210Z,87.42
2023-03-06T19:06:32.225Z,87.55
2023-03-06T19:09:32.214Z,87.04
2023-03-06T19:12:32.228Z,87.79
2023-03-06T19:15:32.176Z,88.64
2023-03-06T19:18:32.228Z,89.88
2023-03-06T19:21:34.164Z,90.39
2023-03-06T19:24:34.228Z,91.10
2023-03-06T19:27:34.187Z,91.00
2023-03-06T19:30:34.200Z,91.63
2023-03-06T19:33:27.224Z,90.88
2023-03-06T19:36:16.168Z,90.88
2023-03-06T19:39:19.217Z,91.13
2023-03-06T19:42:19.176Z,91.67
2023-03-06T19:45:13.243Z,91.90
2023-03-06T19:47:55.438Z,92.08
2023-03-06T19:50:42.240Z,92.20
2023-03-06T19:53:28.191Z,92.84
2023-03-06T19:56:40.231Z,92.54
2023-03-06T19:59:40.227Z,92.90
2023-03-06T20:02:41.198Z,92.68
2023-03-06T20:05:41.253Z,92.90
2023-03-06T20:08:41.205Z,92.64
2023-03-06T20:11:42.180Z,92.77
2023-03-06T20:14:42.238Z,94.45
2023-03-06T20:17:42.217Z,95.33
2023-03-06T20:20:44.180Z,95.54
2023-03-06T20:23:44.224Z,96.41
2023-03-06T20:26:45.170Z,96.94
2023-03-06T20:29:45.211Z,97.02
2023-03-06T20:32:45.168Z,97.21
2023-03-06T20:35:45.235Z,97.17
2023-03-06T20:38:45.171Z,97.06
2023-03-06T20:41:46.165Z,97.46
2023-03-06T20:44:46.174Z,98.18
2023-03-06T20:47:46.162Z,99.84
2023-03-06T20:50:46.230Z,99.75
2023-03-06T20:53:46.172Z,99.86
2023-03-06T20:56:47.178Z,100.00
2023-03-06T20:59:47.168Z,100.00
2023-03-06T21:02:47.168Z,100.00
2023-03-06T21:05:47.178Z,100.00
2023-03-06T21:08:47.236Z,100.00
2023-03-06T21:11:48.178Z,100.00
2023-03-06T21:14:48.179Z,100.00
2023-03-06T21:17:41.167Z,100.00
2023-03-06T21:20:41.185Z,100.00
2023-03-06T21:23:41.207Z,100.00
2023-03-06T21:26:43.163Z,100.00
2023-03-06T21:29:43.217Z,100.00
2023-03-06T21:32:43.223Z,100.00
2023-03-06T21:35:43.245Z,100.00
2023-03-06T21:38:43.164Z,100.00
2023-03-06T21:41:44.195Z,100.00
2023-03-06T21:44:44.167Z,100.00
2023-03-06T21:47:47.227Z,100.00
2023-03-06T21:50:47.171Z,100.00
2023-03-06T21:53:47.195Z,100.00
2023-03-06T21:56:47.216Z,100.00
2023-03-06T21:59:47.204Z,100.00
2023-03-06T22:02:47.201Z,100.00
2023-03-06T22:05:47.171Z,100.00
2023-03-06T22:08:47.223Z,100.00
2023-03-06T22:11:47.206Z,100.00
2023-03-06T22:14:47.218Z,100.00
2023-03-06T22:17:48.211Z,100.00
2023-03-06T22:20:48.180Z,100.00
2023-03-06T22:23:48.166Z,100.00
2023-03-06T22:26:41.169Z,100.00
2023-03-06T22:29:27.210Z,100.00
2023-03-06T22:32:27.165Z,100.00
2023-03-06T22:35:27.190Z,100.00
2023-03-06T22:38:27.194Z,100.00
2023-03-06T22:41:29.226Z,100.00
2023-03-06T22:44:31.157Z,100.00
2023-03-06T22:47:31.182Z,100.00
2023-03-06T22:50:31.165Z,100.00
2023-03-06T22:53:31.194Z,100.00
2023-03-06T22:56:33.190Z,100.00
2023-03-06T22:59:33.191Z,100.00
2023-03-06T23:02:33.157Z,100.00
2023-03-06T23:05:33.213Z,100.00
2023-03-06T23:08:33.182Z,100.00
2023-03-06T23:11:34.156Z,100.00
2023-03-06T23:14:56.331Z,100.00
2023-03-06T23:18:14.162Z,100.00
2023-03-06T23:21:34.180Z,100.00
2023-03-06T23:24:52.152Z,100.00
2023-03-06T23:27:52.181Z,100.00
2023-03-06T23:30:53.175Z,100.00
2023-03-06T23:33:53.213Z,100.00
2023-03-06T23:36:53.144Z,100.00
2023-03-06T23:39:53.168Z,100.00
2023-03-06T23:42:53.148Z,100.00
2023-03-06T23:45:53.240Z,100.00
2023-03-06T23:48:54.163Z,100.00
2023-03-06T23:51:54.186Z,100.00
2023-03-06T23:54:54.185Z,100.00
2023-03-06T23:57:54.212Z,100.00
